Time;durP1;ratioP1;P1;durP2;ratioP2;P2;SDS_P1;SDS_P2;PMS_P1;PMS_P2;Temp;Humidity;BMP_temperature;BMP_pressure;BME280_temperature;BME280_humidity;BME280_pressure;Samples;Min_cycle;Max_cycle;Signal;HPM_P1;HPM_P2
2022/07/10 00:01:37;;;;;;;3.92;2.08;;;20.60;93.30;;;;;;6212779;28;20047;-79
2022/07/10 00:04:39;;;;;;;1.88;1.33;;;20.50;93.40;;;;;;6213353;28;20050;-80
2022/07/10 00:07:40;;;;;;;3.05;2.03;;;20.50;93.60;;;;;;6212575;28;20046;-80
2022/07/10 00:10:43;;;;;;;2.72;2.03;;;20.40;93.70;;;;;;6210419;28;20603;-79
2022/07/10 00:13:45;;;;;;;5.00;2.13;;;20.30;93.80;;;;;;6213336;28;20055;-80
2022/07/10 00:16:47;;;;;;;2.30;1.58;;;20.30;94.00;;;;;;6211634;28;20043;-80
2022/07/10 00:19:49;;;;;;;3.58;2.10;;;20.30;94.00;;;;;;6212132;28;20050;-78
2022/07/10 00:22:51;;;;;;;4.15;2.05;;;20.20;94.10;;;;;;6212387;28;20113;-79
2022/07/10 00:25:54;;;;;;;3.35;2.08;;;20.20;94.50;;;;;;6213581;28;20047;-80
2022/07/10 00:28:56;;;;;;;4.30;2.22;;;20.10;94.60;;;;;;6213347;28;20057;-79
2022/07/10 00:31:57;;;;;;;4.35;2.17;;;20.00;94.90;;;;;;6216592;28;20056;-80
2022/07/10 00:34:59;;;;;;;4.50;2.47;;;19.90;95.00;;;;;;6217109;28;20054;-80
2022/07/10 00:38:01;;;;;;;2.42;1.88;;;19.90;95.10;;;;;;6216960;28;20484;-78
2022/07/10 00:41:04;;;;;;;3.92;2.30;;;20.00;95.20;;;;;;6214744;28;20046;-80
2022/07/10 00:44:06;;;;;;;2.35;2.08;;;19.90;95.20;;;;;;6216714;28;20050;-79
2022/07/10 00:47:09;;;;;;;2.97;2.05;;;19.80;95.20;;;;;;6215701;28;20128;-78
2022/07/10 00:50:12;;;;;;;4.57;2.17;;;19.90;95.40;;;;;;6215855;28;20053;-79
2022/07/10 00:53:14;;;;;;;5.28;2.45;;;19.90;95.40;;;;;;6215235;28;20524;-79
2022/07/10 00:56:19;;;;;;;3.75;1.95;;;19.90;95.30;;;;;;6214947;28;20042;-80
2022/07/10 00:59:22;;;;;;;3.15;2.10;;;20.00;95.30;;;;;;6214345;28;20053;-80
2022/07/10 01:02:24;;;;;;;4.00;2.00;;;20.00;95.20;;;;;;6215381;28;20251;-80
2022/07/10 01:05:26;;;;;;;2.85;2.15;;;20.00;95.20;;;;;;6214417;28;20066;-80
2022/07/10 01:08:29;;;;;;;3.30;2.10;;;20.00;95.20;;;;;;6215899;28;20109;-77
2022/07/10 01:11:35;;;;;;;3.30;2.28;;;19.90;95.10;;;;;;6217393;28;20046;-78
2022/07/10 01:14:39;;;;;;;3.42;2.30;;;19.90;95.20;;;;;;6218536;28;20053;-78
2022/07/10 01:17:41;;;;;;;5.85;2.28;;;19.90;94.80;;;;;;6218445;28;20050;-77
2022/07/10 01:20:43;;;;;;;2.10;1.40;;;19.90;94.30;;;;;;6216785;28;20058;-77
2022/07/10 01:23:46;;;;;;;2.30;1.30;;;19.90;93.40;;;;;;6216745;28;20050;-79
2022/07/10 01:26:48;;;;;;;2.25;1.42;;;19.80;92.90;;;;;;6216997;28;20061;-79
2022/07/10 01:29:51;;;;;;;1.95;0.85;;;19.80;92.00;;;;;;6217258;28;20484;-79
2022/07/10 01:32:53;;;;;;;3.88;1.20;;;19.80;91.40;;;;;;6216964;28;20423;-77
2022/07/10 01:35:55;;;;;;;1.00;0.65;;;19.90;91.00;;;;;;6215057;28;20042;-80
2022/07/10 01:38:58;;;;;;;1.95;0.90;;;20.00;90.60;;;;;;6214923;28;20054;-78
2022/07/10 01:42:00;;;;;;;2.08;1.00;;;20.00;90.20;;;;;;6213837;28;20054;-80
2022/07/10 01:45:02;;;;;;;1.38;0.80;;;20.10;90.00;;;;;;6212816;28;20053;-79
2022/07/10 01:48:04;;;;;;;4.57;1.13;;;20.10;89.80;;;;;;6213322;28;20117;-78
2022/07/10 01:51:06;;;;;;;3.30;1.10;;;20.10;89.70;;;;;;6212409;28;20046;-78
2022/07/10 01:54:09;;;;;;;4.88;0.93;;;20.00;89.70;;;;;;6213139;28;20076;-79
2022/07/10 01:57:11;;;;;;;3.55;1.10;;;20.00;89.70;;;;;;6211858;28;20042;-79
2022/07/10 02:00:13;;;;;;;1.60;1.13;;;20.00;89.90;;;;;;6212015;28;20058;-79
2022/07/10 02:06:34;;;;;;;1.65;1.00;;;19.90;89.80;;;;;;6214389;28;20047;-79
2022/07/10 02:09:38;;;;;;;2.35;1.02;;;19.80;89.70;;;;;;6213112;28;20106;-80
2022/07/10 02:12:40;;;;;;;3.17;1.08;;;19.70;89.70;;;;;;6211269;28;20051;-79
2022/07/10 02:15:42;;;;;;;4.60;1.38;;;19.60;90.00;;;;;;6212607;28;20051;-80
2022/07/10 02:18:43;;;;;;;4.05;1.27;;;19.60;90.10;;;;;;6210998;28;20419;-80
2022/07/10 02:21:45;;;;;;;6.13;2.28;;;19.50;90.10;;;;;;6211666;28;20066;-80
2022/07/10 02:24:48;;;;;;;2.40;0.98;;;19.30;90.30;;;;;;6209982;28;20101;-80
2022/07/10 02:27:50;;;;;;;3.67;0.80;;;19.20;90.50;;;;;;6209356;28;20054;-81
2022/07/10 02:30:52;;;;;;;3.88;0.85;;;19.20;90.60;;;;;;6210018;28;20480;-81
2022/07/10 02:33:54;;;;;;;2.38;0.70;;;19.20;90.60;;;;;;6211355;28;20050;-80
2022/07/10 02:36:55;;;;;;;1.98;0.93;;;19.30;90.60;;;;;;6211807;28;20415;-79
2022/07/10 02:39:58;;;;;;;4.00;0.95;;;19.30;90.40;;;;;;6212444;28;20061;-81
2022/07/10 02:43:00;;;;;;;4.05;1.20;;;19.30;90.40;;;;;;6212556;28;20056;-80
2022/07/10 02:46:02;;;;;;;0.88;0.60;;;19.20;90.40;;;;;;6212271;28;20137;-79
2022/07/10 02:49:05;;;;;;;4.38;1.08;;;19.20;90.40;;;;;;6214075;28;20057;-80
2022/07/10 02:52:07;;;;;;;3.10;0.93;;;19.10;90.50;;;;;;6211358;28;20054;-80
2022/07/10 02:55:10;;;;;;;3.22;0.98;;;19.00;90.50;;;;;;6221906;28;20046;-80
2022/07/10 02:58:12;;;;;;;1.75;0.85;;;18.90;90.60;;;;;;6220105;28;20046;-81
2022/07/10 03:01:13;;;;;;;2.47;0.57;;;18.80;90.80;;;;;;6216350;28;20046;-81
2022/07/10 03:04:15;;;;;;;6.55;1.10;;;18.70;91.00;;;;;;6216202;28;20056;-81
2022/07/10 03:07:17;;;;;;;1.42;0.82;;;18.60;91.20;;;;;;6214591;28;20110;-80
2022/07/10 03:10:20;;;;;;;6.70;1.50;;;18.60;91.30;;;;;;6212224;28;20114;-80
2022/07/10 03:13:22;;;;;;;4.53;1.02;;;18.50;91.50;;;;;;6211567;28;20055;-80
2022/07/10 03:16:24;;;;;;;1.70;0.73;;;18.40;91.60;;;;;;6212908;28;20052;-80
2022/07/10 03:19:26;;;;;;;6.80;1.15;;;18.30;91.70;;;;;;6211194;28;20137;-80
2022/07/10 03:22:28;;;;;;;4.32;1.20;;;18.30;91.80;;;;;;6211685;28;20050;-81
2022/07/10 03:25:31;;;;;;;2.13;0.82;;;18.30;91.90;;;;;;6210569;28;20046;-79
2022/07/10 03:28:33;;;;;;;5.43;1.02;;;18.20;92.00;;;;;;6209474;28;20177;-81
2022/07/10 03:31:34;;;;;;;3.72;0.82;;;18.10;92.10;;;;;;6210151;28;20057;-81
2022/07/10 03:34:36;;;;;;;5.47;1.02;;;18.00;92.10;;;;;;6208780;28;20141;-81
2022/07/10 03:37:38;;;;;;;4.45;0.95;;;18.00;92.20;;;;;;6207365;28;20471;-81
2022/07/10 03:40:42;;;;;;;6.68;1.10;;;18.00;92.20;;;;;;6207656;28;20053;-81
2022/07/10 03:43:43;;;;;;;4.32;1.10;;;18.10;92.20;;;;;;6207345;28;20046;-81
2022/07/10 03:46:45;;;;;;;4.35;0.93;;;18.20;92.10;;;;;;6212589;28;20133;-81
2022/07/10 03:49:47;;;;;;;3.08;0.98;;;18.30;91.80;;;;;;6214981;28;20054;-81
2022/07/10 03:52:49;;;;;;;4.20;1.15;;;18.40;91.60;;;;;;6214685;28;20051;-81
2022/07/10 03:55:52;;;;;;;5.53;2.50;;;18.50;91.40;;;;;;6214255;28;20114;-80
2022/07/10 03:58:52;;;;;;;2.80;0.98;;;18.50;91.10;;;;;;6214015;28;20056;-81
2022/07/10 04:01:54;;;;;;;3.47;0.82;;;18.60;90.90;;;;;;6217028;28;20125;-81
2022/07/10 04:04:56;;;;;;;5.00;0.90;;;18.70;90.80;;;;;;6214693;28;20050;-81
2022/07/10 04:07:59;;;;;;;3.42;0.82;;;18.70;90.50;;;;;;6219421;28;20109;-81
2022/07/10 04:11:02;;;;;;;1.95;0.60;;;18.80;90.50;;;;;;6218537;28;20064;-82
2022/07/10 04:14:03;;;;;;;3.67;0.85;;;18.80;90.30;;;;;;6218816;28;20050;-80
2022/07/10 04:17:05;;;;;;;3.53;1.25;;;18.80;90.30;;;;;;6218633;28;20101;-79
2022/07/10 04:20:08;;;;;;;5.85;0.82;;;18.90;90.00;;;;;;6218696;28;20054;-81
2022/07/10 04:23:10;;;;;;;7.18;1.10;;;19.10;89.90;;;;;;6216805;28;20046;-80
2022/07/10 04:26:13;;;;;;;3.05;1.00;;;19.10;89.30;;;;;;6218449;28;20660;-82
2022/07/10 04:29:14;;;;;;;5.25;0.77;;;19.10;89.10;;;;;;6219308;28;20109;-81
2022/07/10 04:32:17;;;;;;;3.13;0.57;;;19.20;88.90;;;;;;6215020;28;20076;-82
2022/07/10 04:35:19;;;;;;;3.90;1.13;;;19.20;88.80;;;;;;6214653;28;20518;-80
2022/07/10 04:38:20;;;;;;;2.22;0.43;;;19.30;88.50;;;;;;6215400;28;20492;-80
2022/07/10 04:41:23;;;;;;;7.00;1.30;;;19.40;87.90;;;;;;6214999;28;20105;-82
2022/07/10 04:44:25;;;;;;;3.88;0.82;;;19.50;87.50;;;;;;6216499;28;20110;-82
2022/07/10 04:47:27;;;;;;;2.90;0.98;;;19.50;87.10;;;;;;6214921;28;20046;-81
2022/07/10 04:50:29;;;;;;;2.22;0.85;;;19.60;86.70;;;;;;6215871;28;20048;-79
2022/07/10 04:53:30;;;;;;;4.40;1.10;;;19.80;85.70;;;;;;6214515;28;20438;-82
2022/07/10 04:56:33;;;;;;;1.60;0.88;;;19.90;84.90;;;;;;6214775;28;20046;-83
2022/07/10 04:59:36;;;;;;;5.05;0.93;;;20.10;84.50;;;;;;6214511;28;20623;-80
2022/07/10 05:02:37;;;;;;;2.33;0.77;;;20.00;83.90;;;;;;6214232;28;20050;-80
2022/07/10 05:05:39;;;;;;;2.97;0.60;;;20.00;83.70;;;;;;6214393;28;20057;-82
2022/07/10 05:08:41;;;;;;;1.77;0.60;;;20.10;84.10;;;;;;6214848;28;20056;-81
2022/07/10 05:11:44;;;;;;;2.47;0.57;;;20.30;82.90;;;;;;6213148;28;20055;-82
2022/07/10 05:14:45;;;;;;;5.00;0.95;;;20.90;81.10;;;;;;6215295;28;20085;-79
2022/07/10 05:17:48;;;;;;;4.05;0.77;;;21.60;78.20;;;;;;6241150;23;20517;-85
2022/07/10 05:20:49;;;;;;;3.13;0.82;;;22.10;76.30;;;;;;6234442;28;20045;-85
2022/07/10 05:23:51;;;;;;;7.07;1.20;;;22.20;74.80;;;;;;6233312;28;20046;-84
2022/07/10 05:26:54;;;;;;;7.20;0.90;;;22.40;73.90;;;;;;6233587;28;20053;-85
2022/07/10 05:29:56;;;;;;;5.30;0.90;;;22.20;73.20;;;;;;6210400;28;20114;-84
2022/07/10 05:32:58;;;;;;;2.83;0.63;;;21.80;74.30;;;;;;6205551;28;20064;-85
2022/07/10 05:36:00;;;;;;;8.10;0.70;;;21.40;75.10;;;;;;6206351;28;20138;-85
2022/07/10 05:39:01;;;;;;;1.45;0.50;;;21.10;76.10;;;;;;6205469;28;20413;-85
2022/07/10 05:42:05;;;;;;;1.75;1.05;;;21.00;76.60;;;;;;6206634;28;20106;-86
2022/07/10 05:45:09;;;;;;;2.95;0.75;;;20.90;76.20;;;;;;6206612;28;20074;-84
2022/07/10 05:48:11;;;;;;;4.72;0.85;;;21.70;75.50;;;;;;6206359;28;20096;-84
2022/07/10 05:51:12;;;;;;;2.53;0.55;;;23.80;69.10;;;;;;6209684;28;20042;-85
2022/07/10 05:54:14;;;;;;;2.25;0.50;;;24.60;63.70;;;;;;6211151;28;20137;-85
2022/07/10 05:57:17;;;;;;;2.80;1.02;;;24.10;63.20;;;;;;6208612;28;20488;-85
2022/07/10 06:00:19;;;;;;;3.10;0.70;;;23.20;64.80;;;;;;6206325;28;20046;-85
2022/07/10 06:03:22;;;;;;;3.10;0.85;;;22.50;67.70;;;;;;6206746;28;20046;-83
2022/07/10 06:06:24;;;;;;;3.00;0.82;;;22.40;68.50;;;;;;6220452;28;20066;-82
2022/07/10 06:09:26;;;;;;;1.70;0.77;;;22.40;68.80;;;;;;6206017;28;20038;-83
2022/07/10 06:12:29;;;;;;;2.88;1.00;;;22.30;68.80;;;;;;6205188;28;20050;-84
2022/07/10 06:15:31;;;;;;;2.83;0.70;;;22.30;69.30;;;;;;6206295;28;20046;-85
2022/07/10 06:18:33;;;;;;;4.03;0.85;;;22.30;69.10;;;;;;6208662;28;20129;-84
2022/07/10 06:21:34;;;;;;;4.70;1.00;;;22.10;69.00;;;;;;6207791;28;20626;-85
2022/07/10 06:24:36;;;;;;;5.68;0.82;;;22.00;69.50;;;;;;6208933;28;20125;-84
2022/07/10 06:27:39;;;;;;;9.60;1.17;;;21.80;69.50;;;;;;6210041;28;20043;-84
2022/07/10 06:30:41;;;;;;;2.63;0.63;;;21.80;70.00;;;;;;6206424;28;20053;-84
2022/07/10 06:33:43;;;;;;;2.85;0.75;;;21.80;70.00;;;;;;6207154;28;20496;-84
2022/07/10 06:36:45;;;;;;;6.45;1.23;;;21.90;69.60;;;;;;6206467;28;20680;-84
2022/07/10 06:39:48;;;;;;;3.20;1.00;;;21.90;69.10;;;;;;6206342;28;20052;-85
2022/07/10 06:42:51;;;;;;;3.75;0.70;;;21.90;69.00;;;;;;6206238;28;20060;-86
2022/07/10 06:45:53;;;;;;;2.00;0.82;;;21.80;68.60;;;;;;6211171;28;20062;-86
2022/07/10 06:48:55;;;;;;;3.30;0.80;;;21.90;68.50;;;;;;6207638;28;20543;-85
2022/07/10 06:51:57;;;;;;;1.52;0.60;;;21.80;69.00;;;;;;6208200;28;20480;-84
2022/07/10 06:54:59;;;;;;;1.63;0.63;;;21.80;69.10;;;;;;6205619;28;20046;-85
2022/07/10 06:58:02;;;;;;;2.92;0.85;;;22.10;67.90;;;;;;6208220;28;20042;-85
2022/07/10 07:01:04;;;;;;;1.38;0.57;;;22.30;66.70;;;;;;6208021;28;20125;-85
2022/07/10 07:04:06;;;;;;;1.80;0.60;;;24.70;64.70;;;;;;6210676;28;20205;-85
2022/07/10 07:07:07;;;;;;;1.67;0.73;;;28.40;54.70;;;;;;6210641;28;20046;-84
2022/07/10 07:10:11;;;;;;;3.65;1.67;;;30.50;46.40;;;;;;6208794;28;20483;-84
2022/07/10 07:13:14;;;;;;;4.78;0.95;;;31.60;44.70;;;;;;6208188;28;20503;-84
2022/07/10 07:16:18;;;;;;;6.15;1.13;;;33.80;41.20;;;;;;6209973;28;20046;-84
2022/07/10 07:19:30;;;;;;;5.32;1.20;;;34.20;39.10;;;;;;6209548;28;20046;-83
2022/07/10 07:25:51;;;;;;;2.22;0.90;;;32.10;39.60;;;;;;6210460;28;20102;-85
2022/07/10 07:28:54;;;;;;;2.20;0.40;;;30.90;41.30;;;;;;6209733;28;20141;-84
2022/07/10 07:31:58;;;;;;;7.43;0.70;;;29.80;42.20;;;;;;6209604;28;20105;-84
2022/07/10 07:35:01;;;;;;;2.90;0.70;;;28.90;43.30;;;;;;6208997;28;20050;-83
2022/07/10 07:38:03;;;;;;;6.47;0.80;;;28.20;43.90;;;;;;6210354;28;20110;-84
2022/07/10 07:41:05;;;;;;;2.72;0.80;;;27.60;45.10;;;;;;6209587;28;20135;-85
2022/07/10 07:44:08;;;;;;;2.70;0.63;;;26.80;45.90;;;;;;6206015;28;20113;-85
2022/07/10 07:47:10;;;;;;;1.25;0.40;;;26.30;46.60;;;;;;6203485;28;20578;-84
2022/07/10 07:50:12;;;;;;;2.75;0.40;;;26.10;47.50;;;;;;6206179;28;20050;-83
2022/07/10 07:53:14;;;;;;;3.75;0.50;;;26.00;47.90;;;;;;6204124;28;20137;-83
2022/07/10 07:56:16;;;;;;;1.25;0.40;;;26.10;48.10;;;;;;6205733;28;20046;-83
2022/07/10 07:59:19;;;;;;;6.80;1.02;;;26.20;47.50;;;;;;6205739;28;20057;-84
2022/07/10 08:02:21;;;;;;;2.65;0.45;;;26.00;47.20;;;;;;6207221;28;20118;-84
2022/07/10 08:05:24;;;;;;;9.63;2.05;;;26.00;47.70;;;;;;6206836;28;20180;-84
2022/07/10 08:08:25;;;;;;;4.60;0.63;;;25.90;47.70;;;;;;6206203;28;20057;-84
2022/07/10 08:11:27;;;;;;;5.18;0.73;;;26.10;47.60;;;;;;6207017;28;20046;-85
2022/07/10 08:14:30;;;;;;;7.55;1.27;;;26.30;47.10;;;;;;6208043;28;20046;-84
2022/07/10 08:17:32;;;;;;;5.88;1.23;;;26.80;45.70;;;;;;6180388;28;20184;-86
2022/07/10 08:20:34;;;;;;;4.18;0.80;;;27.60;45.40;;;;;;6214644;28;20133;-85
2022/07/10 08:23:36;;;;;;;2.38;0.68;;;27.80;44.00;;;;;;6224645;28;20042;-83
2022/07/10 08:26:37;;;;;;;2.53;0.40;;;28.00;43.60;;;;;;6224499;28;20085;-83
2022/07/10 08:29:40;;;;;;;5.00;1.48;;;27.90;43.50;;;;;;6203445;28;20416;-83
2022/07/10 08:32:43;;;;;;;3.15;0.30;;;27.80;43.70;;;;;;6203259;28;20049;-85
2022/07/10 08:35:44;;;;;;;3.05;0.45;;;27.80;43.40;;;;;;6204375;28;20054;-84
2022/07/10 08:38:46;;;;;;;3.50;0.90;;;27.70;43.60;;;;;;6203342;28;20447;-84
2022/07/10 08:49:17;;;;;;;1.95;0.40;;;29.10;41.20;;;;;;6190057;28;20114;-82
2022/07/10 08:52:34;;;;;;;1.38;0.60;;;28.40;41.80;;;;;;6199109;28;20050;-85
2022/07/10 08:55:44;;;;;;;0.97;0.30;;;29.60;41.10;;;;;;6231324;28;20074;-85
2022/07/10 09:10:26;;;;;;;0.82;0.20;;;28.00;41.00;;;;;;6157293;29;20043;-85
2022/07/10 09:13:28;;;;;;;4.85;1.30;;;28.30;40.60;;;;;;6158291;28;20432;-85
2022/07/10 09:16:32;;;;;;;3.63;0.60;;;29.80;39.30;;;;;;6215658;28;20046;-83
2022/07/10 09:19:35;;;;;;;3.08;0.50;;;31.00;36.70;;;;;;6230666;28;20391;-84
2022/07/10 09:22:37;;;;;;;3.75;0.32;;;31.60;35.40;;;;;;6217150;28;20510;-84
2022/07/10 09:25:41;;;;;;;2.70;0.55;;;31.00;36.50;;;;;;6209132;28;20184;-82
2022/07/10 09:28:42;;;;;;;2.17;0.28;;;30.70;36.30;;;;;;6209618;28;20045;-83
2022/07/10 09:31:52;;;;;;;1.00;0.32;;;32.20;35.00;;;;;;6210167;28;20089;-85
2022/07/10 09:38:11;;;;;;;2.53;0.50;;;35.30;32.10;;;;;;6208932;28;20077;-85
2022/07/10 09:41:16;;;;;;;2.20;0.45;;;36.50;30.70;;;;;;6208246;28;20132;-82
2022/07/10 09:44:19;;;;;;;1.45;0.30;;;35.90;30.60;;;;;;6209471;28;20061;-86
2022/07/10 09:47:24;;;;;;;2.67;0.55;;;34.30;31.10;;;;;;6195016;28;20129;-86
2022/07/10 09:50:29;;;;;;;5.03;0.73;;;33.60;31.50;;;;;;6205445;28;20046;-86
2022/07/10 09:53:33;;;;;;;3.97;0.70;;;33.20;32.10;;;;;;6208134;28;20086;-84
2022/07/10 09:56:41;;;;;;;0.63;0.20;;;34.30;31.30;;;;;;6198792;28;20058;-85
2022/07/10 09:59:44;;;;;;;1.38;0.25;;;35.40;30.30;;;;;;6201667;28;20057;-85
2022/07/10 10:02:47;;;;;;;1.85;0.20;;;36.40;29.70;;;;;;6195203;28;20050;-85
2022/07/10 10:05:55;;;;;;;3.67;0.52;;;36.90;29.30;;;;;;6202077;28;21100;-81
2022/07/10 10:09:03;;;;;;;2.00;0.30;;;37.00;28.70;;;;;;6209892;28;20045;-87
2022/07/10 10:12:17;;;;;;;3.10;0.47;;;37.20;28.50;;;;;;6190687;28;20692;-84
2022/07/10 10:15:19;;;;;;;1.20;0.28;;;37.30;28.20;;;;;;6183935;28;20043;-86
2022/07/10 10:18:23;;;;;;;1.08;0.30;;;37.00;28.40;;;;;;6191306;28;20073;-85
2022/07/10 10:21:25;;;;;;;4.45;0.50;;;36.30;28.60;;;;;;6215416;28;20061;-85
2022/07/10 10:24:27;;;;;;;2.55;0.40;;;35.30;29.20;;;;;;6202952;28;20050;-85
2022/07/10 10:27:31;;;;;;;4.07;0.40;;;34.20;29.80;;;;;;6201076;28;20050;-85
2022/07/10 10:30:34;;;;;;;0.80;0.10;;;32.80;30.20;;;;;;6196920;28;20393;-84
2022/07/10 10:33:45;;;;;;;2.60;0.65;;;31.50;31.20;;;;;;6206466;28;20101;-84
2022/07/10 10:36:48;;;;;;;2.28;0.20;;;30.80;31.90;;;;;;6207957;28;20488;-84
2022/07/10 10:39:56;;;;;;;2.30;0.32;;;30.50;32.20;;;;;;6206542;28;20058;-84
2022/07/10 10:43:15;;;;;;;5.00;0.60;;;30.30;32.40;;;;;;6206316;28;20051;-85
2022/07/10 10:46:26;;;;;;;1.50;0.30;;;30.00;32.40;;;;;;6208595;28;20102;-85
2022/07/10 10:49:47;;;;;;;2.65;0.40;;;29.70;32.60;;;;;;6203421;28;20054;-85
2022/07/10 10:53:02;;;;;;;1.15;0.15;;;29.60;32.80;;;;;;6218960;28;20042;-83
2022/07/10 10:56:24;;;;;;;1.65;0.43;;;29.50;33.00;;;;;;6224504;28;20053;-83
2022/07/10 10:59:49;;;;;;;4.15;0.30;;;29.50;33.40;;;;;;6226740;28;20049;-83
2022/07/10 11:03:18;;;;;;;1.45;0.30;;;29.40;33.70;;;;;;6227461;28;20050;-85
2022/07/10 11:06:39;;;;;;;5.78;0.80;;;29.50;33.30;;;;;;6227434;28;20141;-83
2022/07/10 11:09:41;;;;;;;2.85;0.50;;;29.50;32.90;;;;;;6224302;28;20688;-86
2022/07/10 11:12:59;;;;;;;3.05;0.32;;;29.60;33.30;;;;;;6228649;28;20050;-84
2022/07/10 11:16:13;;;;;;;3.33;0.22;;;29.80;33.10;;;;;;6236322;28;20109;-84
2022/07/10 11:19:21;;;;;;;2.50;0.20;;;29.80;33.00;;;;;;6224360;28;20110;-85
2022/07/10 11:22:50;;;;;;;2.47;0.43;;;29.60;33.00;;;;;;6206684;28;20191;-84
2022/07/10 11:26:01;;;;;;;1.15;0.30;;;29.50;33.60;;;;;;6204559;28;20073;-84
2022/07/10 11:29:06;;;;;;;4.03;0.38;;;29.70;33.50;;;;;;6204105;28;20057;-84
2022/07/10 11:32:09;;;;;;;1.25;0.30;;;29.10;33.10;;;;;;6203545;28;20097;-85
2022/07/10 11:35:12;;;;;;;2.40;0.40;;;28.70;34.00;;;;;;6205399;28;20085;-84
2022/07/10 11:38:20;;;;;;;3.20;0.60;;;28.70;33.90;;;;;;6209839;28;20054;-85
2022/07/10 11:41:22;;;;;;;;;;;29.20;33.80;;;;;;6209860;28;20052;-86
2022/07/10 11:44:24;;;;;;;1.90;0.32;;;29.60;33.70;;;;;;6206581;28;20400;-86
2022/07/10 11:47:31;;;;;;;3.42;0.50;;;29.90;32.70;;;;;;6203392;28;20086;-86
2022/07/10 11:50:37;;;;;;;4.05;0.73;;;29.80;33.50;;;;;;6209823;28;20053;-85
2022/07/10 11:53:39;;;;;;;2.27;0.67;;;29.50;33.60;;;;;;6221314;28;20261;-85
2022/07/10 11:56:43;;;;;;;3.30;0.70;;;29.20;32.90;;;;;;6226393;28;20050;-84
2022/07/10 11:59:44;;;;;;;1.38;0.40;;;29.30;33.20;;;;;;6225807;28;20148;-85
2022/07/10 12:02:47;;;;;;;3.50;0.45;;;29.60;32.80;;;;;;6225977;28;20058;-84
2022/07/10 12:05:50;;;;;;;2.38;0.17;;;29.50;32.90;;;;;;6226361;28;20064;-83
2022/07/10 12:08:52;;;;;;;0.82;0.10;;;29.50;33.60;;;;;;6224937;28;20500;-84
2022/07/10 12:12:00;;;;;;;1.48;0.22;;;29.40;33.40;;;;;;6224204;28;20064;-86
2022/07/10 12:15:01;;;;;;;;;;;29.70;33.70;;;;;;6224426;28;20064;-83
2022/07/10 12:18:06;;;;;;;2.67;0.43;;;30.20;33.10;;;;;;6225440;28;20286;-84
2022/07/10 12:21:08;;;;;;;1.45;0.60;;;30.70;32.50;;;;;;6215511;28;20046;-84
2022/07/10 12:24:10;;;;;;;0.82;0.13;;;31.20;32.40;;;;;;6227065;28;20423;-85
2022/07/10 12:27:13;;;;;;;3.92;0.60;;;31.60;31.40;;;;;;6230468;28;20048;-87
2022/07/10 12:30:14;;;;;;;1.80;0.30;;;31.70;31.00;;;;;;6233904;28;20488;-84
2022/07/10 12:33:23;;;;;;;1.92;0.20;;;31.40;31.00;;;;;;6215019;28;20471;-84
2022/07/10 12:36:26;;;;;;;6.72;0.60;;;30.70;31.70;;;;;;6208489;28;20563;-87
2022/07/10 12:39:32;;;;;;;1.60;0.32;;;30.20;32.70;;;;;;6207964;28;20050;-83
2022/07/10 12:42:34;;;;;;;1.40;0.30;;;30.40;32.80;;;;;;6208955;28;20053;-85
2022/07/10 12:45:35;;;;;;;2.85;0.40;;;30.70;32.50;;;;;;6210082;28;20422;-87
2022/07/10 12:48:40;;;;;;;1.90;0.30;;;30.40;31.90;;;;;;6208217;28;20050;-84
2022/07/10 12:51:47;;;;;;;1.20;0.30;;;30.20;32.40;;;;;;6219297;28;20522;-85
2022/07/10 12:54:49;;;;;;;2.05;0.30;;;30.60;32.70;;;;;;6233973;28;20058;-85
2022/07/10 12:57:54;;;;;;;1.58;0.35;;;31.10;32.50;;;;;;6232880;28;20060;-87
2022/07/10 13:00:56;;;;;;;2.60;0.60;;;31.10;32.20;;;;;;6228100;28;20050;-85
2022/07/10 13:04:01;;;;;;;3.97;0.50;;;30.70;32.00;;;;;;6227227;28;20511;-84
2022/07/10 13:07:13;;;;;;;1.67;0.20;;;30.30;32.00;;;;;;6230506;28;20042;-88
2022/07/10 13:10:15;;;;;;;7.85;0.50;;;30.00;32.80;;;;;;6226106;28;20046;-86
2022/07/10 13:13:17;;;;;;;1.25;0.20;;;29.80;33.10;;;;;;6205931;28;20054;-86
2022/07/10 13:16:18;;;;;;;6.43;0.57;;;30.00;32.80;;;;;;6201577;28;20431;-86
2022/07/10 13:19:21;;;;;;;1.50;0.40;;;29.70;32.90;;;;;;6200957;28;20412;-86
2022/07/10 13:22:23;;;;;;;1.65;0.65;;;29.50;33.40;;;;;;6217389;28;20046;-85
2022/07/10 13:25:25;;;;;;;2.85;0.73;;;30.00;32.70;;;;;;6225206;28;20533;-86
2022/07/10 13:28:27;;;;;;;4.55;0.68;;;29.60;32.90;;;;;;6225844;28;20050;-85
2022/07/10 13:31:29;;;;;;;1.85;0.17;;;28.90;33.60;;;;;;6218188;28;20043;-84
2022/07/10 13:34:32;;;;;;;1.02;0.17;;;28.90;34.70;;;;;;6202191;28;20414;-84
2022/07/10 13:37:34;;;;;;;3.47;0.40;;;29.30;34.30;;;;;;6201413;28;20050;-85
2022/07/10 13:40:37;;;;;;;1.55;0.30;;;29.60;34.20;;;;;;6202875;28;20053;-83
2022/07/10 13:43:39;;;;;;;3.25;0.50;;;29.60;34.10;;;;;;6203478;28;20050;-83
2022/07/10 13:46:41;;;;;;;1.33;0.35;;;30.00;33.20;;;;;;6205462;28;20050;-84
2022/07/10 13:49:44;;;;;;;2.45;0.32;;;30.40;33.10;;;;;;6208604;28;20061;-82
2022/07/10 13:52:46;;;;;;;4.18;0.68;;;30.90;32.90;;;;;;6221253;28;20053;-84
2022/07/10 13:55:48;;;;;;;1.58;0.20;;;30.70;32.90;;;;;;6230080;28;20048;-84
2022/07/10 13:58:50;;;;;;;1.33;0.45;;;30.90;33.00;;;;;;6230840;28;20098;-84
2022/07/10 14:01:51;;;;;;;3.75;0.63;;;31.10;32.40;;;;;;6232289;28;20042;-83
2022/07/10 14:04:54;;;;;;;1.90;0.28;;;31.40;32.50;;;;;;6232284;28;20722;-84
2022/07/10 14:07:56;;;;;;;1.95;0.22;;;31.50;32.20;;;;;;6231956;28;20415;-84
2022/07/10 14:10:58;;;;;;;3.05;0.65;;;31.10;32.30;;;;;;6232519;28;20045;-83
2022/07/10 14:14:01;;;;;;;3.03;0.50;;;30.00;33.50;;;;;;6245358;28;20077;-83
2022/07/10 14:17:03;;;;;;;1.10;0.20;;;29.40;34.20;;;;;;6226518;28;20400;-82
2022/07/10 14:20:08;;;;;;;2.45;0.65;;;29.60;34.60;;;;;;6220284;28;20407;-84
2022/07/10 14:23:10;;;;;;;0.80;0.40;;;30.30;34.30;;;;;;6218260;28;20500;-83
2022/07/10 14:26:12;;;;;;;1.95;0.40;;;30.50;34.10;;;;;;6227302;28;20049;-82
2022/07/10 14:29:13;;;;;;;3.70;0.50;;;30.60;34.00;;;;;;6226123;28;20042;-83
2022/07/10 14:32:15;;;;;;;2.75;0.60;;;30.20;34.20;;;;;;6220725;28;20508;-84
2022/07/10 14:35:18;;;;;;;2.60;0.60;;;30.30;34.30;;;;;;6200477;28;20516;-85
2022/07/10 14:38:21;;;;;;;2.42;0.75;;;30.20;34.40;;;;;;6205875;28;20138;-84
2022/07/10 14:41:24;;;;;;;3.33;0.40;;;30.60;34.30;;;;;;6211404;28;20043;-84
2022/07/10 14:44:27;;;;;;;5.35;0.30;;;31.10;33.80;;;;;;6210707;28;20137;-84
2022/07/10 14:47:30;;;;;;;3.88;0.77;;;31.60;33.00;;;;;;6206695;28;20070;-87
2022/07/10 14:50:34;;;;;;;0.95;0.40;;;31.80;33.10;;;;;;6215192;28;20053;-82
2022/07/10 14:53:37;;;;;;;2.45;0.40;;;31.80;32.80;;;;;;6227284;28;20162;-84
2022/07/10 14:56:38;;;;;;;3.30;0.50;;;31.50;32.70;;;;;;6232465;28;20439;-85
2022/07/10 14:59:40;;;;;;;2.42;0.50;;;31.30;33.20;;;;;;6233802;28;20118;-85
2022/07/10 15:02:42;;;;;;;1.80;0.20;;;30.90;33.60;;;;;;6241619;28;20050;-81
2022/07/10 15:05:45;;;;;;;1.60;0.40;;;30.60;33.90;;;;;;6239460;28;20105;-84
2022/07/10 15:08:50;;;;;;;1.73;0.32;;;30.40;34.50;;;;;;6240053;28;20145;-83
2022/07/10 15:11:53;;;;;;;1.38;0.32;;;30.10;35.00;;;;;;6236885;28;20074;-83
2022/07/10 15:14:55;;;;;;;0.90;0.20;;;29.80;35.20;;;;;;6232771;28;20484;-83
2022/07/10 15:17:56;;;;;;;4.82;0.40;;;29.30;35.50;;;;;;6231843;28;20046;-82
2022/07/10 15:20:59;;;;;;;1.27;0.32;;;28.60;36.00;;;;;;6221921;28;20073;-83
2022/07/10 15:24:01;;;;;;;1.70;0.40;;;28.30;37.20;;;;;;6230799;28;20117;-82
2022/07/10 15:27:03;;;;;;;1.85;0.47;;;28.60;37.00;;;;;;6235548;28;20045;-82
2022/07/10 15:30:06;;;;;;;1.40;0.30;;;28.80;36.80;;;;;;6235044;28;20132;-82
2022/07/10 15:33:08;;;;;;;2.20;0.30;;;29.00;36.80;;;;;;6229876;28;20050;-82
2022/07/10 15:36:12;;;;;;;2.92;0.30;;;29.10;36.80;;;;;;6210765;28;20050;-82
2022/07/10 15:39:14;;;;;;;4.25;0.50;;;29.00;36.40;;;;;;6213970;28;20085;-82
2022/07/10 15:42:15;;;;;;;2.83;0.40;;;29.00;36.40;;;;;;6213754;28;20054;-82
2022/07/10 15:45:17;;;;;;;3.35;0.40;;;28.90;36.90;;;;;;6213428;28;20370;-82
2022/07/10 15:48:19;;;;;;;1.77;0.32;;;28.60;37.40;;;;;;6211685;28;20122;-82
2022/07/10 15:51:22;;;;;;;3.70;0.55;;;28.50;37.50;;;;;;6220928;28;20066;-83
2022/07/10 15:54:24;;;;;;;3.05;0.65;;;28.20;37.50;;;;;;6238458;28;20056;-82
2022/07/10 15:57:26;;;;;;;1.60;0.43;;;28.10;38.00;;;;;;6236617;28;20054;-82
2022/07/10 16:00:27;;;;;;;3.42;0.35;;;28.00;38.20;;;;;;6236794;28;20439;-82
2022/07/10 16:03:29;;;;;;;4.97;0.30;;;28.00;38.20;;;;;;6241907;28;20330;-82
2022/07/10 16:06:32;;;;;;;1.23;0.28;;;27.80;38.50;;;;;;6243131;28;20391;-82
2022/07/10 16:09:34;;;;;;;2.35;0.20;;;27.60;38.50;;;;;;6239716;28;20046;-81
2022/07/10 16:12:36;;;;;;;2.70;0.52;;;27.50;38.70;;;;;;6223514;28;20069;-82
2022/07/10 16:15:38;;;;;;;1.35;0.38;;;27.40;38.80;;;;;;6210612;28;20054;-81
2022/07/10 16:18:40;;;;;;;1.73;0.47;;;27.20;39.10;;;;;;6210548;28;20103;-82
2022/07/10 16:21:43;;;;;;;5.55;0.50;;;26.80;40.00;;;;;;6220961;28;20045;-82
2022/07/10 16:28:05;;;;;;;1.20;0.20;;;26.40;40.70;;;;;;6237517;28;20045;-80